Time;durP1;ratioP1;P1;durP2;ratioP2;P2;SDS_P1;SDS_P2;PMS_P1;PMS_P2;Temp;Humidity;BMP_temperature;BMP_pressure;BME280_temperature;BME280_humidity;BME280_pressure;Samples;Min_cycle;Max_cycle;Signal;HPM_P1;HPM_P2
2024/02/27 00:00:19;;;;;;;3.70;3.30;;;;;;;9.17;55.17;95184.69;4986908;28;20420;-70
2024/02/27 00:02:44;;;;;;;5.13;4.33;;;;;;;9.09;55.57;95176.41;4986724;28;20200;-70
2024/02/27 00:05:09;;;;;;;4.23;2.80;;;;;;;9.06;54.80;95171.38;4986895;28;20308;-69
2024/02/27 00:07:35;;;;;;;3.30;2.70;;;;;;;9.17;54.60;95168.13;4986971;28;20699;-69
2024/02/27 00:10:01;;;;;;;4.63;3.10;;;;;;;9.19;54.43;95174.09;4986996;28;20219;-69
2024/02/27 00:12:27;;;;;;;4.50;3.30;;;;;;;9.24;54.16;95180.78;4987517;28;20948;-69
2024/02/27 00:14:53;;;;;;;3.70;3.00;;;;;;;9.19;54.56;95182.81;4987039;28;20176;-70
2024/02/27 00:17:22;;;;;;;4.10;2.83;;;;;;;9.07;55.10;95189.59;4987440;28;20181;-70
2024/02/27 00:19:48;;;;;;;4.70;3.60;;;;;;;9.04;55.32;95192.38;4979430;28;20424;-70
2024/02/27 00:22:13;;;;;;;4.33;3.90;;;;;;;8.74;56.25;95210.66;4987282;28;20466;-70
2024/02/27 00:24:39;;;;;;;3.77;3.43;;;;;;;8.84;55.66;95213.63;4988093;28;20284;-70
2024/02/27 00:27:04;;;;;;;4.60;3.67;;;;;;;8.67;56.15;95220.63;4997688;28;20199;-70
2024/02/27 00:29:31;;;;;;;5.23;3.80;;;;;;;8.58;57.39;95228.97;4999864;28;20252;-70
2024/02/27 00:31:57;;;;;;;9.93;4.03;;;;;;;8.51;56.95;95234.63;5007343;28;20193;-70
2024/02/27 00:34:23;;;;;;;4.30;3.80;;;;;;;8.48;57.85;95235.63;5011261;28;20411;-70
2024/02/27 00:36:48;;;;;;;3.80;3.30;;;;;;;8.34;57.68;95231.13;5008613;28;20211;-69
2024/02/27 00:39:14;;;;;;;5.13;3.80;;;;;;;8.39;57.91;95236.09;5007589;28;20200;-69
2024/02/27 00:41:40;;;;;;;4.77;3.83;;;;;;;8.30;58.23;95236.59;5000225;28;20195;-70
2024/02/27 00:44:07;;;;;;;3.77;3.47;;;;;;;8.26;59.49;95239.34;4987531;28;20236;-70
2024/02/27 00:46:33;;;;;;;4.83;4.33;;;;;;;8.15;59.13;95243.47;4986735;28;20820;-71
2024/02/27 00:48:59;;;;;;;4.30;3.53;;;;;;;8.39;59.58;95244.78;4987041;28;20423;-71
2024/02/27 00:51:24;;;;;;;4.30;3.90;;;;;;;8.43;59.47;95242.88;4985932;28;20444;-71
2024/02/27 00:53:50;;;;;;;6.13;4.27;;;;;;;8.43;59.48;95251.56;4985660;28;20206;-70
2024/02/27 00:56:15;;;;;;;4.20;3.80;;;;;;;8.23;59.91;95247.38;4985853;28;20176;-70
2024/02/27 00:58:43;;;;;;;8.17;4.60;;;;;;;8.32;60.20;95247.81;4985812;28;20193;-70
2024/02/27 01:01:08;;;;;;;6.57;3.73;;;;;;;8.61;58.72;95247.09;4985560;28;20653;-70
2024/02/27 01:03:33;;;;;;;5.63;4.70;;;;;;;8.67;59.06;95245.94;4985486;28;20420;-69
2024/02/27 01:05:59;;;;;;;4.60;3.67;;;;;;;8.72;59.23;95237.81;4985624;28;20247;-70
2024/02/27 01:08:25;;;;;;;4.73;3.73;;;;;;;8.63;59.36;95240.03;4985943;28;20951;-70
2024/02/27 01:10:50;;;;;;;4.20;3.80;;;;;;;8.73;58.52;95237.75;4985990;28;20718;-70
2024/02/27 01:13:16;;;;;;;5.80;4.27;;;;;;;8.78;58.75;95232.25;4986150;28;20173;-70
2024/02/27 01:15:41;;;;;;;3.57;3.13;;;;;;;8.79;58.95;95218.25;4989582;28;20220;-70
2024/02/27 01:18:07;;;;;;;4.50;3.33;;;;;;;8.72;59.45;95217.75;4990253;28;20295;-70
2024/02/27 01:20:32;;;;;;;5.50;3.70;;;;;;;8.73;59.46;95206.34;4989917;28;20197;-70
2024/02/27 01:22:58;;;;;;;8.00;3.77;;;;;;;8.87;58.64;95213.44;4989961;28;20177;-70
2024/02/27 01:25:23;;;;;;;5.10;4.00;;;;;;;8.81;58.84;95217.25;4993508;28;20188;-70
2024/02/27 01:27:48;;;;;;;5.13;3.97;;;;;;;8.78;59.07;95209.53;4989651;28;20176;-70
2024/02/27 01:30:14;;;;;;;3.83;3.47;;;;;;;8.55;59.96;95208.22;4989985;28;20251;-69
2024/02/27 01:32:40;;;;;;;4.00;3.60;;;;;;;8.58;60.33;95202.81;4990044;28;20177;-70
2024/02/27 01:35:06;;;;;;;5.70;4.20;;;;;;;8.61;60.80;95207.03;4989508;28;20179;-70
2024/02/27 01:37:32;;;;;;;4.60;4.00;;;;;;;8.55;60.93;95205.63;4989908;28;20423;-70
2024/02/27 01:39:58;;;;;;;6.10;4.40;;;;;;;8.67;60.38;95207.56;4992112;28;20247;-70
2024/02/27 01:42:23;;;;;;;5.10;3.70;;;;;;;8.50;60.90;95207.63;4997237;28;20440;-69
2024/02/27 01:44:51;;;;;;;5.80;4.13;;;;;;;8.26;61.18;95201.94;4996993;28;20217;-71
2024/02/27 01:47:17;;;;;;;5.50;4.17;;;;;;;7.94;63.18;95201.06;4995444;28;20176;-70
2024/02/27 01:49:43;;;;;;;3.57;3.27;;;;;;;8.26;62.06;95196.69;4993102;28;20416;-70
2024/02/27 01:52:09;;;;;;;4.90;3.83;;;;;;;8.53;61.03;95191.78;4989676;28;20442;-72
2024/02/27 01:54:35;;;;;;;4.83;4.33;;;;;;;8.53;61.09;95196.16;4989164;28;20195;-69
2024/02/27 01:57:02;;;;;;;5.30;4.50;;;;;;;8.63;60.11;95197.34;4989170;28;21017;-70
2024/02/27 01:59:28;;;;;;;5.87;4.10;;;;;;;8.42;61.33;95210.66;4971680;28;20420;-70
2024/02/27 02:01:55;;;;;;;5.10;4.00;;;;;;;8.39;61.51;95216.03;4988720;28;20490;-70
2024/02/27 02:04:20;;;;;;;5.17;3.87;;;;;;;7.96;62.97;95220.06;4989430;28;21131;-70
2024/02/27 02:06:46;;;;;;;5.30;3.47;;;;;;;8.07;62.56;95215.97;4988953;28;20416;-69
2024/02/27 02:09:12;;;;;;;4.37;3.97;;;;;;;8.11;62.22;95211.44;4988841;28;20177;-69
2024/02/27 02:11:38;;;;;;;6.33;4.53;;;;;;;8.26;62.09;95215.84;4988026;28;20447;-69
2024/02/27 02:14:04;;;;;;;7.80;4.20;;;;;;;8.30;62.03;95226.97;4988905;28;20179;-70
2024/02/27 02:16:29;;;;;;;6.27;4.63;;;;;;;8.22;61.70;95219.56;4988671;28;20451;-70
2024/02/27 02:18:56;;;;;;;4.53;3.80;;;;;;;8.01;61.98;95229.38;4988338;28;20177;-69
2024/02/27 02:21:21;;;;;;;4.93;4.10;;;;;;;7.89;62.80;95231.75;4988002;28;20279;-70
2024/02/27 02:23:47;;;;;;;4.17;3.50;;;;;;;8.05;62.19;95232.66;4987847;28;20416;-69
2024/02/27 02:26:13;;;;;;;6.97;5.40;;;;;;;7.74;62.49;95234.25;4987445;28;20173;-70
2024/02/27 02:28:39;;;;;;;6.23;5.40;;;;;;;7.99;61.90;95233.84;4988900;28;20652;-70
2024/02/27 02:31:04;;;;;;;4.87;4.27;;;;;;;7.81;62.63;95242.63;4988538;28;20498;-70
2024/02/27 02:33:29;;;;;;;5.57;4.90;;;;;;;7.82;62.05;95239.94;4988745;28;20497;-69
2024/02/27 02:35:55;;;;;;;7.13;4.80;;;;;;;7.99;61.33;95246.06;4988092;28;20710;-70
2024/02/27 02:38:20;;;;;;;6.43;5.83;;;;;;;8.01;61.22;95239.00;4988441;28;20173;-70
2024/02/27 02:40:46;;;;;;;7.47;5.77;;;;;;;8.08;61.42;95253.41;4987810;28;20197;-69
2024/02/27 02:43:11;;;;;;;5.80;5.20;;;;;;;7.97;61.32;95250.50;4987940;28;20176;-69
2024/02/27 02:45:37;;;;;;;6.67;5.37;;;;;;;8.02;60.50;95245.88;4987582;28;20196;-69
2024/02/27 02:48:03;;;;;;;7.97;5.60;;;;;;;7.88;61.41;95246.59;4988127;28;20291;-69
2024/02/27 02:50:31;;;;;;;6.37;5.47;;;;;;;7.85;60.40;95250.22;4987683;28;20447;-71
2024/02/27 02:52:57;;;;;;;8.50;5.90;;;;;;;7.69;61.15;95246.69;4987763;28;20409;-70
2024/02/27 02:55:23;;;;;;;6.77;5.40;;;;;;;7.79;60.70;95255.75;4987646;28;21247;-70
2024/02/27 02:57:48;;;;;;;15.07;7.23;;;;;;;7.89;60.45;95252.66;4979999;28;20173;-69
2024/02/27 03:00:17;;;;;;;6.80;6.13;;;;;;;8.10;59.15;95250.69;4987688;28;20237;-69
2024/02/27 03:02:42;;;;;;;10.00;6.50;;;;;;;7.70;59.91;95255.38;4987558;28;20259;-70
2024/02/27 03:05:12;;;;;;;7.20;5.93;;;;;;;7.65;59.67;95260.81;4987724;28;20489;-69
2024/02/27 03:07:38;;;;;;;6.80;5.70;;;;;;;7.81;58.42;95255.69;4987678;28;20169;-70
2024/02/27 03:10:04;;;;;;;8.33;6.43;;;;;;;7.92;58.67;95258.59;4987880;28;20420;-70
2024/02/27 03:12:29;;;;;;;8.30;6.07;;;;;;;7.94;57.97;95261.97;4987796;28;20443;-70
2024/02/27 03:14:54;;;;;;;8.97;6.07;;;;;;;8.00;57.91;95260.78;4988011;28;20927;-70
2024/02/27 03:17:20;;;;;;;8.67;6.73;;;;;;;8.04;57.63;95264.94;4987923;28;20205;-70
2024/02/27 03:19:45;;;;;;;8.43;6.50;;;;;;;7.74;57.87;95269.97;4987546;28;20255;-70
2024/02/27 03:22:11;;;;;;;7.93;7.10;;;;;;;7.68;58.70;95278.97;4987656;28;20192;-69
2024/02/27 03:24:37;;;;;;;8.90;6.47;;;;;;;7.73;58.28;95276.97;4993968;28;20189;-70
2024/02/27 03:27:03;;;;;;;10.97;7.13;;;;;;;7.61;59.08;95291.47;4992837;28;20176;-70
2024/02/27 03:29:29;;;;;;;13.00;7.30;;;;;;;7.48;59.11;95281.72;4989123;28;20640;-70
2024/02/27 03:31:55;;;;;;;8.77;7.40;;;;;;;7.47;59.42;95287.88;4988156;28;20432;-70
2024/02/27 03:34:20;;;;;;;9.63;7.60;;;;;;;7.55;59.04;95288.31;4988398;28;20419;-70
2024/02/27 03:36:46;;;;;;;10.93;7.43;;;;;;;7.26;60.22;95290.63;4987291;28;20280;-70
2024/02/27 03:39:14;;;;;;;9.73;7.20;;;;;;;7.42;59.94;95288.09;4986498;28;20173;-70
2024/02/27 03:41:39;;;;;;;9.77;7.33;;;;;;;7.25;60.03;95288.06;4987182;28;20268;-70
2024/02/27 03:44:05;;;;;;;9.83;6.50;;;;;;;7.11;60.38;95287.00;4987046;28;20542;-70
2024/02/27 03:46:30;;;;;;;12.23;7.80;;;;;;;7.20;60.86;95294.38;4987395;28;20880;-69
2024/02/27 03:48:56;;;;;;;11.90;8.13;;;;;;;7.07;61.38;95295.88;4982538;28;20572;-70
2024/02/27 03:51:21;;;;;;;11.90;7.67;;;;;;;7.08;61.79;95307.16;4986729;28;20195;-70
2024/02/27 03:53:47;;;;;;;11.90;8.03;;;;;;;7.09;61.29;95298.41;4986867;28;20187;-70
2024/02/27 03:56:12;;;;;;;8.83;7.10;;;;;;;6.70;64.09;95307.19;4981565;28;20279;-70
2024/02/27 03:58:37;;;;;;;11.03;7.13;;;;;;;6.82;63.79;95311.81;4969129;28;20264;-69
2024/02/27 04:01:03;;;;;;;8.30;6.97;;;;;;;6.91;63.69;95310.56;4985685;28;20700;-70
2024/02/27 04:03:29;;;;;;;11.00;7.93;;;;;;;6.82;64.34;95316.19;4986418;28;20208;-70
2024/02/27 04:05:54;;;;;;;8.40;6.77;;;;;;;6.78;64.92;95323.34;4986350;28;20284;-70
2024/02/27 04:08:19;;;;;;;10.93;8.33;;;;;;;6.87;64.51;95322.03;4987015;28;20172;-70
2024/02/27 04:10:45;;;;;;;10.07;7.57;;;;;;;6.76;65.03;95327.78;4989660;28;20228;-71
2024/02/27 04:13:10;;;;;;;11.33;7.93;;;;;;;6.82;63.83;95337.06;4986160;28;20184;-69
2024/02/27 04:15:36;;;;;;;11.67;9.00;;;;;;;6.64;64.79;95342.22;4982565;28;20182;-69
2024/02/27 04:18:01;;;;;;;9.27;7.23;;;;;;;6.52;65.33;95351.44;4984791;28;20255;-69
2024/02/27 04:20:26;;;;;;;10.77;7.80;;;;;;;6.61;64.95;95346.69;4985396;28;20250;-68
2024/02/27 04:22:52;;;;;;;13.37;8.40;;;;;;;6.80;64.75;95365.81;4984894;28;20563;-69
2024/02/27 04:25:18;;;;;;;10.83;8.53;;;;;;;6.70;64.50;95362.78;4966910;28;20883;-69
2024/02/27 04:27:43;;;;;;;10.37;8.30;;;;;;;6.49;64.96;95367.19;4985406;28;20746;-69
2024/02/27 04:30:10;;;;;;;13.13;9.17;;;;;;;6.43;65.47;95371.84;4984871;28;20416;-68
2024/02/27 04:32:35;;;;;;;12.87;8.60;;;;;;;6.52;65.65;95367.06;4985887;28;20708;-70
2024/02/27 04:35:01;;;;;;;10.40;7.77;;;;;;;6.60;64.75;95369.31;4985764;28;20411;-69
2024/02/27 04:37:27;;;;;;;13.63;9.80;;;;;;;6.41;65.22;95382.31;4982723;28;20184;-69
2024/02/27 04:39:52;;;;;;;13.27;9.53;;;;;;;6.44;65.32;95381.34;4985302;28;21324;-69
2024/02/27 04:42:18;;;;;;;12.13;9.20;;;;;;;6.48;65.20;95380.31;4985502;28;20193;-69
2024/02/27 04:44:44;;;;;;;14.00;9.80;;;;;;;6.66;64.83;95381.22;4985368;28;20204;-70
2024/02/27 04:47:09;;;;;;;12.83;9.20;;;;;;;6.81;64.28;95383.16;4982747;28;20867;-70
2024/02/27 04:49:35;;;;;;;12.87;9.27;;;;;;;6.74;64.08;95386.97;4984529;28;20173;-69
2024/02/27 04:52:00;;;;;;;13.10;9.47;;;;;;;6.60;64.72;95397.16;4984218;28;20206;-69
2024/02/27 04:54:26;;;;;;;14.23;9.73;;;;;;;6.47;65.27;95392.50;4985703;28;20235;-69
2024/02/27 04:56:51;;;;;;;15.23;9.93;;;;;;;6.81;64.47;95393.59;4981172;28;20590;-70
2024/02/27 04:59:17;;;;;;;14.43;10.87;;;;;;;6.65;64.69;95403.84;4985087;28;20267;-70
2024/02/27 05:01:48;;;;;;;12.57;9.07;;;;;;;6.66;64.97;95402.94;4982975;28;20579;-68
2024/02/27 05:04:14;;;;;;;14.00;10.27;;;;;;;6.60;65.31;95399.75;4985926;28;20200;-70
2024/02/27 05:06:40;;;;;;;15.53;10.90;;;;;;;6.91;64.18;95399.22;4985840;28;20523;-70
2024/02/27 05:09:06;;;;;;;17.37;9.87;;;;;;;7.00;64.57;95399.66;4986678;28;20506;-70
2024/02/27 05:11:32;;;;;;;15.70;9.77;;;;;;;6.90;65.06;95403.59;4986071;28;20258;-70
2024/02/27 05:13:57;;;;;;;16.30;10.67;;;;;;;7.05;64.43;95396.00;4986375;28;21239;-70
2024/02/27 05:16:23;;;;;;;13.97;9.83;;;;;;;7.10;64.42;95400.06;4978424;28;20182;-70
2024/02/27 05:18:49;;;;;;;15.60;11.03;;;;;;;7.28;63.75;95400.16;4985421;28;20188;-69
2024/02/27 05:21:17;;;;;;;19.90;11.53;;;;;;;7.21;63.89;95402.19;4985454;28;20207;-69
2024/02/27 05:23:43;;;;;;;23.63;11.17;;;;;;;7.27;64.19;95399.28;4985394;28;20849;-69
2024/02/27 05:26:09;;;;;;;17.10;11.30;;;;;;;7.27;63.65;95399.28;4983617;28;20472;-69
2024/02/27 05:28:36;;;;;;;18.20;12.93;;;;;;;7.25;64.08;95405.50;4986423;28;20428;-69
2024/02/27 05:31:02;;;;;;;17.50;10.77;;;;;;;7.31;63.48;95402.59;4980689;28;20228;-69
2024/02/27 05:33:27;;;;;;;16.70;10.30;;;;;;;7.35;63.15;95405.00;4985784;28;20444;-69
2024/02/27 05:35:52;;;;;;;14.30;10.37;;;;;;;7.27;63.31;95409.72;4986607;28;20530;-70
2024/02/27 05:38:18;;;;;;;17.13;10.43;;;;;;;7.19;64.00;95414.47;5001012;28;20185;-69
2024/02/27 05:40:43;;;;;;;16.07;10.20;;;;;;;6.95;64.65;95412.06;5001982;28;20209;-72
2024/02/27 05:43:10;;;;;;;18.20;10.77;;;;;;;7.00;64.99;95422.28;5002197;28;20192;-70
2024/02/27 05:45:35;;;;;;;19.57;13.07;;;;;;;7.12;64.77;95418.28;4995172;28;20267;-71
2024/02/27 05:48:01;;;;;;;17.03;11.27;;;;;;;7.18;65.00;95420.56;4986154;28;20432;-69
2024/02/27 05:50:26;;;;;;;13.20;11.13;;;;;;;7.06;64.35;95428.97;4983532;28;20185;-70
2024/02/27 05:52:52;;;;;;;15.40;10.77;;;;;;;6.98;65.00;95432.78;4984313;28;20191;-69
2024/02/27 05:55:18;;;;;;;18.30;12.30;;;;;;;6.83;65.37;95443.91;4983448;28;20208;-69
2024/02/27 05:57:43;;;;;;;23.13;11.90;;;;;;;6.79;65.50;95442.34;4976052;28;20604;-69
2024/02/27 06:00:10;;;;;;;19.07;13.27;;;;;;;6.62;66.86;95450.06;4984680;28;20431;-69
2024/02/27 06:02:36;;;;;;;14.60;11.03;;;;;;;6.82;65.69;95457.00;4987970;28;20203;-68
2024/02/27 06:05:02;;;;;;;21.77;11.80;;;;;;;6.95;65.77;95447.75;4998560;28;20462;-69
2024/02/27 06:07:27;;;;;;;20.60;12.47;;;;;;;6.90;65.76;95458.38;5003645;28;21038;-69
2024/02/27 06:09:54;;;;;;;18.17;12.67;;;;;;;6.55;66.06;95460.75;4984809;28;20186;-68
2024/02/27 06:12:19;;;;;;;15.53;11.67;;;;;;;6.72;66.65;95461.78;4984666;28;20228;-70
2024/02/27 06:14:44;;;;;;;14.63;11.83;;;;;;;6.90;65.63;95460.97;4977812;28;20437;-70
2024/02/27 06:17:10;;;;;;;18.03;12.07;;;;;;;7.07;65.11;95462.00;4971666;28;20224;-68
2024/02/27 06:19:43;;;;;;;14.50;10.80;;;;;;;6.95;65.26;95469.44;4978362;28;20588;-70
2024/02/27 06:22:14;;;;;;;14.40;10.80;;;;;;;7.06;64.17;95468.94;4977532;28;20202;-70
2024/02/27 06:24:40;;;;;;;18.60;12.20;;;;;;;7.14;63.60;95469.47;4980827;28;20550;-69
2024/02/27 06:27:08;;;;;;;18.03;12.07;;;;;;;6.85;64.84;95468.16;4984879;28;20547;-70
2024/02/27 06:29:34;;;;;;;15.93;11.47;;;;;;;6.97;64.73;95467.63;4979423;28;20295;-70
2024/02/27 06:31:59;;;;;;;13.67;10.50;;;;;;;7.06;63.75;95476.78;4979768;28;20456;-68
2024/02/27 06:34:26;;;;;;;17.10;12.30;;;;;;;7.07;64.36;95470.66;4976472;28;20178;-70
2024/02/27 06:36:51;;;;;;;14.50;10.63;;;;;;;7.19;63.48;95464.03;4978756;28;20196;-69
2024/02/27 06:39:17;;;;;;;15.90;11.20;;;;;;;7.15;63.38;95471.13;4997762;28;20419;-69
2024/02/27 06:41:50;;;;;;;14.90;11.30;;;;;;;7.02;63.56;95471.78;5005564;28;20365;-69
2024/02/27 06:44:16;;;;;;;14.73;10.77;;;;;;;7.05;63.40;95476.84;4975871;28;20192;-69
2024/02/27 06:46:41;;;;;;;15.80;11.67;;;;;;;6.97;64.41;95478.03;4974778;28;21251;-69
2024/02/27 06:49:07;;;;;;;16.93;9.93;;;;;;;7.14;63.84;95476.44;4980150;28;20439;-70
2024/02/27 06:51:32;;;;;;;17.63;11.47;;;;;;;7.08;63.94;95481.94;4983512;28;20212;-70
2024/02/27 06:53:58;;;;;;;14.77;10.20;;;;;;;6.80;64.13;95483.16;4985470;28;20185;-69
2024/02/27 06:56:23;;;;;;;17.83;12.63;;;;;;;6.97;63.84;95482.44;4982526;28;20185;-70
2024/02/27 06:58:50;;;;;;;21.17;12.07;;;;;;;6.95;63.53;95482.47;4984738;28;20219;-70
2024/02/27 07:01:16;;;;;;;20.83;11.90;;;;;;;7.16;63.23;95487.66;4981960;28;20759;-70
2024/02/27 07:03:41;;;;;;;12.50;9.93;;;;;;;7.15;62.12;95489.41;4988748;28;20427;-68
2024/02/27 07:06:06;;;;;;;15.87;10.47;;;;;;;7.25;62.91;95487.22;4985826;28;20216;-69
2024/02/27 07:08:33;;;;;;;18.77;10.97;;;;;;;7.18;62.33;95491.03;4987209;28;20206;-70
2024/02/27 07:10:59;;;;;;;16.97;11.07;;;;;;;7.19;62.34;95490.97;4992555;28;20316;-68
2024/02/27 07:13:24;;;;;;;15.90;10.93;;;;;;;7.20;62.51;95483.97;4982459;28;20436;-68
2024/02/27 07:15:49;;;;;;;16.13;10.90;;;;;;;7.20;62.48;95479.63;4989471;28;20261;-68
2024/02/27 07:18:15;;;;;;;16.57;10.37;;;;;;;7.30;62.18;95485.28;5000914;28;20180;-69
2024/02/27 07:20:42;;;;;;;17.70;12.00;;;;;;;7.08;62.70;95489.75;4984945;28;20209;-69
2024/02/27 07:23:08;;;;;;;15.90;11.30;;;;;;;7.20;62.71;95486.59;4985189;28;20192;-68
2024/02/27 07:25:33;;;;;;;13.70;10.67;;;;;;;7.30;62.30;95492.22;4990527;28;20467;-69
2024/02/27 07:27:59;;;;;;;19.27;11.03;;;;;;;7.37;61.58;95497.13;4981312;28;20195;-69
2024/02/27 07:30:26;;;;;;;14.93;10.13;;;;;;;7.39;61.36;95504.88;4980519;28;20276;-67
2024/02/27 07:32:53;;;;;;;14.83;9.53;;;;;;;7.25;61.82;95505.50;4984299;28;20192;-68
2024/02/27 07:35:18;;;;;;;18.63;11.40;;;;;;;7.37;62.08;95497.13;4987710;28;20958;-68
2024/02/27 07:37:44;;;;;;;15.20;10.93;;;;;;;7.36;62.10;95515.47;4997969;28;20432;-68
2024/02/27 07:40:10;;;;;;;14.90;9.83;;;;;;;7.20;62.42;95521.38;5000378;28;20212;-68
2024/02/27 07:42:36;;;;;;;14.17;10.93;;;;;;;7.29;62.74;95520.09;4999921;28;20288;-70
2024/02/27 07:45:01;;;;;;;15.27;11.80;;;;;;;7.34;62.50;95510.28;4990559;28;20204;-68
2024/02/27 07:47:27;;;;;;;15.07;11.10;;;;;;;7.22;62.55;95514.31;4977042;28;20498;-67
2024/02/27 07:49:52;;;;;;;16.83;10.23;;;;;;;7.32;62.60;95517.38;4983854;28;20295;-68
2024/02/27 07:52:18;;;;;;;14.67;11.37;;;;;;;7.39;62.95;95515.31;4984164;28;20215;-68
2024/02/27 07:54:43;;;;;;;16.33;10.20;;;;;;;7.27;62.84;95515.88;4993056;28;20195;-68
2024/02/27 07:57:08;;;;;;;13.60;10.57;;;;;;;7.47;62.72;95513.22;4987012;28;20310;-68
2024/02/27 07:59:34;;;;;;;18.50;13.17;;;;;;;7.61;61.89;95516.03;4983417;28;20263;-69
2024/02/27 08:02:00;;;;;;;13.93;11.00;;;;;;;7.54;61.94;95519.00;4978086;28;20200;-68
2024/02/27 08:04:25;;;;;;;14.30;11.57;;;;;;;7.76;61.18;95503.16;4983121;28;20216;-68
2024/02/27 08:06:50;;;;;;;13.67;10.80;;;;;;;7.57;61.75;95511.84;4981393;28;20185;-69
2024/02/27 08:09:16;;;;;;;13.00;10.47;;;;;;;7.49;62.83;95513.13;4978061;28;20185;-69
2024/02/27 08:11:41;;;;;;;15.20;10.90;;;;;;;7.70;62.43;95526.94;4985468;28;20216;-68
2024/02/27 08:14:07;;;;;;;15.10;11.50;;;;;;;7.32;63.28;95530.41;4987431;28;20217;-69
2024/02/27 08:16:32;;;;;;;13.67;10.40;;;;;;;7.44;63.45;95529.03;4981625;28;21010;-68
2024/02/27 08:18:58;;;;;;;19.13;11.60;;;;;;;7.77;62.34;95515.28;4985549;28;20994;-69
2024/02/27 08:21:24;;;;;;;16.37;11.07;;;;;;;7.77;62.75;95525.75;4984364;28;20902;-69
2024/02/27 08:23:49;;;;;;;15.97;11.40;;;;;;;7.62;63.45;95530.75;4968506;28;20440;-69
2024/02/27 08:26:15;;;;;;;16.03;11.67;;;;;;;7.73;63.21;95529.44;4979365;28;20201;-69
2024/02/27 08:28:40;;;;;;;17.27;11.07;;;;;;;7.79;62.45;95535.19;4978609;28;20185;-69
2024/02/27 08:31:05;;;;;;;15.67;11.40;;;;;;;7.58;62.90;95539.69;4965616;28;20204;-68
2024/02/27 08:33:31;;;;;;;20.20;12.80;;;;;;;7.45;64.03;95545.53;4980247;28;20189;-69
2024/02/27 08:35:56;;;;;;;16.83;11.80;;;;;;;8.01;62.83;95539.44;4983886;28;20224;-68
2024/02/27 08:38:21;;;;;;;18.77;11.90;;;;;;;8.11;62.60;95534.63;4983805;28;20185;-69
2024/02/27 08:40:47;;;;;;;19.20;13.40;;;;;;;8.51;60.97;95528.31;4982663;28;20201;-68
2024/02/27 08:43:14;;;;;;;12.83;11.20;;;;;;;9.23;58.66;95518.53;4977252;28;20181;-68
2024/02/27 08:45:41;;;;;;;15.10;11.77;;;;;;;9.20;58.57;95519.53;4981579;28;20211;-68
2024/02/27 08:48:07;;;;;;;14.93;11.53;;;;;;;9.74;57.57;95512.28;4961769;28;21022;-69
2024/02/27 08:50:32;;;;;;;16.03;12.17;;;;;;;9.74;57.36;95520.13;4975692;28;20476;-68
2024/02/27 08:52:57;;;;;;;18.53;13.10;;;;;;;9.87;56.29;95524.69;4980607;28;20205;-70
2024/02/27 08:55:26;;;;;;;16.50;13.00;;;;;;;9.44;57.81;95519.19;4982294;28;20321;-69
2024/02/27 08:57:51;;;;;;;17.63;12.20;;;;;;;9.48;58.22;95534.66;4982830;28;20557;-69
2024/02/27 09:00:17;;;;;;;17.60;13.27;;;;;;;9.02;59.19;95523.97;4976991;28;20436;-70
2024/02/27 09:02:43;;;;;;;18.43;12.40;;;;;;;8.96;59.89;95537.38;4982528;28;20488;-68
2024/02/27 09:05:08;;;;;;;20.30;13.27;;;;;;;9.03;59.03;95541.38;4984666;28;20619;-68
2024/02/27 09:07:43;;;;;;;18.47;14.07;;;;;;;9.23;58.92;95535.09;4971234;28;20180;-69
2024/02/27 09:10:10;;;;;;;17.17;13.80;;;;;;;9.13;59.03;95531.25;4979498;28;20196;-68
2024/02/27 09:12:35;;;;;;;14.60;12.30;;;;;;;9.40;58.93;95533.34;4981584;28;20974;-68
2024/02/27 09:15:01;;;;;;;20.73;13.33;;;;;;;9.41;58.65;95524.59;4985833;28;20435;-68
2024/02/27 09:17:26;;;;;;;15.90;11.57;;;;;;;9.28;58.85;95524.38;4994202;28;20177;-68
2024/02/27 09:19:51;;;;;;;16.50;12.37;;;;;;;8.93;60.41;95537.53;4983620;28;20207;-69
2024/02/27 09:22:17;;;;;;;15.87;12.80;;;;;;;8.97;60.74;95536.44;4984580;28;20204;-68
2024/02/27 09:24:43;;;;;;;20.30;14.10;;;;;;;8.27;61.73;95544.25;4983010;28;21041;-67
2024/02/27 09:27:09;;;;;;;18.43;12.97;;;;;;;7.92;63.49;95556.38;4983463;28;20189;-67
2024/02/27 09:29:35;;;;;;;19.10;13.70;;;;;;;7.52;64.29;95560.84;4984926;28;20181;-69
2024/02/27 09:32:00;;;;;;;17.27;13.77;;;;;;;7.43;65.63;95558.63;4986514;28;20935;-68
2024/02/27 09:34:26;;;;;;;17.93;14.20;;;;;;;7.60;65.18;95561.31;4982209;28;20428;-69
2024/02/27 09:36:53;;;;;;;20.97;14.40;;;;;;;7.73;65.30;95560.78;4980688;28;20727;-69
2024/02/27 09:39:21;;;;;;;17.90;13.60;;;;;;;7.66;65.14;95565.44;4983893;28;20231;-69
2024/02/27 09:42:19;;;;;;;19.03;14.00;;;;;;;7.74;64.82;95573.75;4981557;28;20459;-68
2024/02/27 09:44:45;;;;;;;19.73;14.33;;;;;;;7.83;64.21;95572.47;4962658;28;20472;-69
2024/02/27 09:47:12;;;;;;;19.77;14.90;;;;;;;7.51;65.84;95566.97;4984577;28;20439;-68
2024/02/27 09:49:43;;;;;;;18.73;13.30;;;;;;;7.67;65.10;95576.72;4994823;28;20247;-68
2024/02/27 09:52:14;;;;;;;21.40;14.70;;;;;;;7.66;65.97;95580.25;4985174;28;20595;-68
2024/02/27 09:54:41;;;;;;;17.80;13.57;;;;;;;7.63;65.62;95579.47;4985635;28;20440;-68
2024/02/27 09:57:06;;;;;;;18.53;13.50;;;;;;;7.79;65.27;95584.81;4979949;28;20880;-68
2024/02/27 09:59:33;;;;;;;21.03;13.83;;;;;;;7.94;65.43;95574.59;4986579;28;20447;-68
2024/02/27 10:02:06;;;;;;;17.30;13.57;;;;;;;8.02;64.01;95582.94;4984343;28;20319;-67
2024/02/27 10:04:34;;;;;;;21.00;13.87;;;;;;;7.98;64.60;95579.59;4993784;28;20475;-68
2024/02/27 10:07:02;;;;;;;20.73;13.67;;;;;;;7.98;65.08;95571.75;4983845;28;20443;-69
2024/02/27 10:09:33;;;;;;;15.93;11.90;;;;;;;8.67;62.40;95565.03;4981094;28;20435;-69
2024/02/27 10:11:58;;;;;;;17.10;14.03;;;;;;;8.65;62.05;95572.94;4977780;28;20934;-68
2024/02/27 10:14:36;;;;;;;24.10;14.27;;;;;;;8.58;62.57;95578.56;4986001;28;20443;-68
2024/02/27 10:17:04;;;;;;;19.83;13.70;;;;;;;8.66;62.37;95579.84;4989946;28;20180;-69
2024/02/27 10:19:30;;;;;;;18.17;14.00;;;;;;;8.55;62.97;95589.13;4997264;28;20456;-68
2024/02/27 10:21:56;;;;;;;20.87;15.23;;;;;;;8.86;62.06;95580.63;4980077;28;20953;-68
2024/02/27 10:24:27;;;;;;;20.37;15.23;;;;;;;8.87;62.04;95590.16;4985369;28;20531;-68
2024/02/27 10:26:56;;;;;;;21.23;14.23;;;;;;;8.42;63.32;95586.28;4984652;28;20268;-69
2024/02/27 10:29:27;;;;;;;24.67;16.33;;;;;;;8.51;63.69;95595.47;4993252;28;20432;-68
2024/02/27 10:31:52;;;;;;;24.77;14.63;;;;;;;8.54;62.85;95597.91;4995739;28;21230;-69
2024/02/27 10:34:19;;;;;;;19.60;13.90;;;;;;;8.32;63.76;95598.94;5004146;28;20436;-69
2024/02/27 10:36:44;;;;;;;20.53;14.47;;;;;;;8.32;63.86;95608.53;4995016;28;20277;-68
2024/02/27 10:39:10;;;;;;;19.67;14.73;;;;;;;8.49;63.57;95605.97;4992256;28;20467;-70
2024/02/27 10:41:40;;;;;;;20.07;14.20;;;;;;;8.80;62.70;95607.09;4980671;28;20576;-69
2024/02/27 10:44:09;;;;;;;19.23;13.43;;;;;;;9.04;61.56;95605.84;4984003;28;20956;-68
2024/02/27 10:46:36;;;;;;;17.43;13.30;;;;;;;9.03;60.98;95604.19;4983785;28;20805;-67
2024/02/27 10:49:02;;;;;;;18.73;13.87;;;;;;;9.13;60.71;95599.31;4978021;28;20424;-68
2024/02/27 10:51:28;;;;;;;19.43;15.00;;;;;;;8.85;61.66;95615.56;4979959;28;20455;-70
2024/02/27 10:53:56;;;;;;;16.87;13.83;;;;;;;8.87;62.00;95613.72;4978732;28;20442;-68
2024/02/27 10:56:23;;;;;;;20.00;14.30;;;;;;;9.04;61.58;95611.09;4979645;28;20868;-68
2024/02/27 10:58:51;;;;;;;34.20;16.10;;;;;;;8.91;61.96;95604.81;4981360;28;20439;-69
2024/02/27 11:01:17;;;;;;;24.27;14.77;;;;;;;8.75;62.10;95615.16;4982311;28;20495;-69
2024/02/27 11:03:48;;;;;;;19.73;16.03;;;;;;;9.04;60.99;95608.47;4982613;28;20483;-68
2024/02/27 11:06:19;;;;;;;17.87;14.73;;;;;;;9.13;61.15;95608.94;4981690;28;20494;-67
2024/02/27 11:08:50;;;;;;;19.40;14.00;;;;;;;8.92;61.55;95614.34;4981992;28;20491;-68
2024/02/27 11:11:16;;;;;;;20.50;15.63;;;;;;;8.89;62.25;95617.09;4986867;28;20455;-69
2024/02/27 11:13:44;;;;;;;20.97;15.03;;;;;;;8.38;63.23;95616.91;4981218;28;20803;-67
2024/02/27 11:16:13;;;;;;;18.23;14.10;;;;;;;8.66;62.83;95621.69;4984236;28;20216;-69
2024/02/27 11:18:45;;;;;;;20.50;14.70;;;;;;;8.68;62.32;95614.63;4976274;28;20506;-69
2024/02/27 11:21:12;;;;;;;17.43;14.43;;;;;;;8.60;63.62;95601.09;4980714;28;20523;-68
2024/02/27 11:23:37;;;;;;;21.60;16.10;;;;;;;9.27;65.40;95598.63;4986334;28;20436;-69
2024/02/27 11:26:03;;;;;;;18.87;14.03;;;;;;;9.58;61.23;95589.16;4985357;28;20968;-70